sensor_id;sensor_type;location;lat;lon;timestamp;pressure;altitude;pressure_sealevel;temperature
68446;BMP280;35789;48.414;12.768;2023-09-19T00:00:00;96630.0;;;
68446;BMP280;35789;48.414;12.768;2023-09-19T00:05:00;96630.0;;;
68446;BMP280;35789;48.414;12.768;2023-09-19T00:10:00;96640.0;;;
68446;BMP280;35789;48.414;12.768;2023-09-19T00:15:00;96640.0;;;
68446;BMP280;35789;48.414;12.768;2023-09-19T00:20:00;96640.0;;;
68446;BMP280;35789;48.414;12.768;2023-09-19T00:25:00;96650.0;;;
68446;BMP280;35789;48.414;12.768;2023-09-19T00:30:00;96640.0;;;
68446;BMP280;35789;48.414;12.768;2023-09-19T00:35:00;96640.0;;;
68446;BMP280;35789;48.414;12.768;2023-09-19T00:40:00;96650.0;;;
68446;BMP280;35789;48.414;12.768;2023-09-19T00:45:00;96650.0;;;
68446;BMP280;35789;48.414;12.768;2023-09-19T00:50:00;96660.0;;;
68446;BMP280;35789;48.414;12.768;2023-09-19T00:55:00;96650.0;;;
68446;BMP280;35789;48.414;12.768;2023-09-19T01:00:01;96650.0;;;
68446;BMP280;35789;48.414;12.768;2023-09-19T01:05:01;96650.0;;;
68446;BMP280;35789;48.414;12.768;2023-09-19T01:10:02;96660.0;;;
68446;BMP280;35789;48.414;12.768;2023-09-19T01:15:10;96660.0;;;
68446;BMP280;35789;48.414;12.768;2023-09-19T01:20:16;96670.0;;;
68446;BMP280;35789;48.414;12.768;2023-09-19T01:25:28;96670.0;;;
68446;BMP280;35789;48.414;12.768;2023-09-19T01:30:08;96670.0;;;
68446;BMP280;35789;48.414;12.768;2023-09-19T01:35:00;96670.0;;;
68446;BMP280;35789;48.414;12.768;2023-09-19T01:40:05;96670.0;;;
68446;BMP280;35789;48.414;12.768;2023-09-19T01:45:09;96680.0;;;
68446;BMP280;35789;48.414;12.768;2023-09-19T01:50:13;96680.0;;;
68446;BMP280;35789;48.414;12.768;2023-09-19T01:55:06;96680.0;;;
68446;BMP280;35789;48.414;12.768;2023-09-19T02:00:04;96670.0;;;
68446;BMP280;35789;48.414;12.768;2023-09-19T02:05:00;96680.0;;;
68446;BMP280;35789;48.414;12.768;2023-09-19T02:10:00;96680.0;;;
68446;BMP280;35789;48.414;12.768;2023-09-19T02:15:00;96680.0;;;
68446;BMP280;35789;48.414;12.768;2023-09-19T02:20:00;96690.0;;;
68446;BMP280;35789;48.414;12.768;2023-09-19T02:25:00;96690.0;;;
68446;BMP280;35789;48.414;12.768;2023-09-19T02:30:00;96680.0;;;
68446;BMP280;35789;48.414;12.768;2023-09-19T02:35:00;96680.0;;;
68446;BMP280;35789;48.414;12.768;2023-09-19T02:40:00;96680.0;;;
68446;BMP280;35789;48.414;12.768;2023-09-19T02:45:00;96680.0;;;
68446;BMP280;35789;48.414;12.768;2023-09-19T02:50:00;96690.0;;;
68446;BMP280;35789;48.414;12.768;2023-09-19T02:55:00;96700.0;;;
68446;BMP280;35789;48.414;12.768;2023-09-19T03:00:00;96690.0;;;
68446;BMP280;35789;48.414;12.768;2023-09-19T03:05:00;96700.0;;;
68446;BMP280;35789;48.414;12.768;2023-09-19T03:10:00;96700.0;;;
68446;BMP280;35789;48.414;12.768;2023-09-19T03:15:02;96700.0;;;
68446;BMP280;35789;48.414;12.768;2023-09-19T03:20:00;96700.0;;;
68446;BMP280;35789;48.414;12.768;2023-09-19T03:25:00;96710.0;;;
68446;BMP280;35789;48.414;12.768;2023-09-19T03:30:00;96710.0;;;
68446;BMP280;35789;48.414;12.768;2023-09-19T03:35:00;96710.0;;;
68446;BMP280;35789;48.414;12.768;2023-09-19T03:40:00;96720.0;;;
68446;BMP280;35789;48.414;12.768;2023-09-19T03:45:00;96710.0;;;
68446;BMP280;35789;48.414;12.768;2023-09-19T03:50:00;96720.0;;;
68446;BMP280;35789;48.414;12.768;2023-09-19T03:55:00;96720.0;;;
68446;BMP280;35789;48.414;12.768;2023-09-19T04:00:00;96720.0;;;
68446;BMP280;35789;48.414;12.768;2023-09-19T04:05:00;96730.0;;;
68446;BMP280;35789;48.414;12.768;2023-09-19T04:10:00;96730.0;;;
68446;BMP280;35789;48.414;12.768;2023-09-19T04:15:00;96730.0;;;
68446;BMP280;35789;48.414;12.768;2023-09-19T04:20:00;96730.0;;;
68446;BMP280;35789;48.414;12.768;2023-09-19T04:25:00;96740.0;;;
68446;BMP280;35789;48.414;12.768;2023-09-19T04:30:00;96740.0;;;
68446;BMP280;35789;48.414;12.768;2023-09-19T04:35:00;96740.0;;;
68446;BMP280;35789;48.414;12.768;2023-09-19T04:40:00;96750.0;;;
68446;BMP280;35789;48.414;12.768;2023-09-19T04:45:00;96750.0;;;
68446;BMP280;35789;48.414;12.768;2023-09-19T04:50:00;96760.0;;;
68446;BMP280;35789;48.414;12.768;2023-09-19T04:55:01;96760.0;;;
68446;BMP280;35789;48.414;12.768;2023-09-19T05:00:00;96770.0;;;
68446;BMP280;35789;48.414;12.768;2023-09-19T05:05:00;96760.0;;;
68446;BMP280;35789;48.414;12.768;2023-09-19T05:10:01;96770.0;;;
68446;BMP280;35789;48.414;12.768;2023-09-19T05:15:00;96780.0;;;
68446;BMP280;35789;48.414;12.768;2023-09-19T05:20:01;96780.0;;;
68446;BMP280;35789;48.414;12.768;2023-09-19T05:25:00;96780.0;;;
68446;BMP280;35789;48.414;12.768;2023-09-19T05:30:00;96780.0;;;
68446;BMP280;35789;48.414;12.768;2023-09-19T05:35:00;96790.0;;;
68446;BMP280;35789;48.414;12.768;2023-09-19T05:40:00;96790.0;;;
68446;BMP280;35789;48.414;12.768;2023-09-19T05:45:00;96800.0;;;
68446;BMP280;35789;48.414;12.768;2023-09-19T05:50:00;96800.0;;;
68446;BMP280;35789;48.414;12.768;2023-09-19T05:55:00;96810.0;;;
68446;BMP280;35789;48.414;12.768;2023-09-19T06:00:00;96810.0;;;
68446;BMP280;35789;48.414;12.768;2023-09-19T06:05:00;96820.0;;;
68446;BMP280;35789;48.414;12.768;2023-09-19T06:10:00;96820.0;;;
68446;BMP280;35789;48.414;12.768;2023-09-19T06:15:00;96830.0;;;
68446;BMP280;35789;48.414;12.768;2023-09-19T06:20:00;96830.0;;;
68446;BMP280;35789;48.414;12.768;2023-09-19T06:25:00;96830.0;;;
68446;BMP280;35789;48.414;12.768;2023-09-19T06:30:00;96830.0;;;
68446;BMP280;35789;48.414;12.768;2023-09-19T06:35:00;96840.0;;;
68446;BMP280;35789;48.414;12.768;2023-09-19T06:40:00;96840.0;;;
68446;BMP280;35789;48.414;12.768;2023-09-19T06:45:00;96850.0;;;
68446;BMP280;35789;48.414;12.768;2023-09-19T06:50:00;96850.0;;;
68446;BMP280;35789;48.414;12.768;2023-09-19T06:55:00;96860.0;;;
68446;BMP280;35789;48.414;12.768;2023-09-19T07:00:00;96860.0;;;
68446;BMP280;35789;48.414;12.768;2023-09-19T07:05:00;96860.0;;;
68446;BMP280;35789;48.414;12.768;2023-09-19T07:10:00;96860.0;;;
68446;BMP280;35789;48.414;12.768;2023-09-19T07:15:00;96860.0;;;
68446;BMP280;35789;48.414;12.768;2023-09-19T07:20:00;96860.0;;;
68446;BMP280;35789;48.414;12.768;2023-09-19T07:25:00;96860.0;;;
68446;BMP280;35789;48.414;12.768;2023-09-19T07:30:00;96870.0;;;
68446;BMP280;35789;48.414;12.768;2023-09-19T07:35:00;96880.0;;;
68446;BMP280;35789;48.414;12.768;2023-09-19T07:40:00;96880.0;;;
68446;BMP280;35789;48.414;12.768;2023-09-19T07:45:00;96890.0;;;
68446;BMP280;35789;48.414;12.768;2023-09-19T07:50:00;96900.0;;;
68446;BMP280;35789;48.414;12.768;2023-09-19T07:55:00;96910.0;;;
68446;BMP280;35789;48.414;12.768;2023-09-19T08:00:00;96920.0;;;
68446;BMP280;35789;48.414;12.768;2023-09-19T08:05:00;96920.0;;;
68446;BMP280;35789;48.414;12.768;2023-09-19T08:10:00;96930.0;;;
68446;BMP280;35789;48.414;12.768;2023-09-19T08:15:00;96920.0;;;
68446;BMP280;35789;48.414;12.768;2023-09-19T08:20:00;96920.0;;;
68446;BMP280;35789;48.414;12.768;2023-09-19T08:25:00;96930.0;;;
68446;BMP280;35789;48.414;12.768;2023-09-19T08:30:00;96930.0;;;
68446;BMP280;35789;48.414;12.768;2023-09-19T08:35:00;96930.0;;;
68446;BMP280;35789;48.414;12.768;2023-09-19T08:40:00;96930.0;;;
68446;BMP280;35789;48.414;12.768;2023-09-19T08:45:01;96930.0;;;
68446;BMP280;35789;48.414;12.768;2023-09-19T08:50:09;96930.0;;;
68446;BMP280;35789;48.414;12.768;2023-09-19T08:55:03;96930.0;;;
68446;BMP280;35789;48.414;12.768;2023-09-19T09:00:01;96930.0;;;
68446;BMP280;35789;48.414;12.768;2023-09-19T09:05:01;96930.0;;;
68446;BMP280;35789;48.414;12.768;2023-09-19T09:10:03;96930.0;;;
68446;BMP280;35789;48.414;12.768;2023-09-19T09:15:00;96930.0;;;
68446;BMP280;35789;48.414;12.768;2023-09-19T09:20:00;96930.0;;;
68446;BMP280;35789;48.414;12.768;2023-09-19T09:25:00;96930.0;;;
68446;BMP280;35789;48.414;12.768;2023-09-19T09:30:00;96920.0;;;
68446;BMP280;35789;48.414;12.768;2023-09-19T09:35:01;96920.0;;;
68446;BMP280;35789;48.414;12.768;2023-09-19T09:40:02;96920.0;;;
68446;BMP280;35789;48.414;12.768;2023-09-19T09:45:13;96930.0;;;
68446;BMP280;35789;48.414;12.768;2023-09-19T09:50:00;96930.0;;;
68446;BMP280;35789;48.414;12.768;2023-09-19T09:55:02;96930.0;;;
68446;BMP280;35789;48.414;12.768;2023-09-19T10:00:02;96920.0;;;
68446;BMP280;35789;48.414;12.768;2023-09-19T10:05:12;96920.0;;;
68446;BMP280;35789;48.414;12.768;2023-09-19T10:10:02;96920.0;;;
68446;BMP280;35789;48.414;12.768;2023-09-19T10:15:03;96920.0;;;
68446;BMP280;35789;48.414;12.768;2023-09-19T10:20:02;96920.0;;;
68446;BMP280;35789;48.414;12.768;2023-09-19T10:25:00;96910.0;;;
68446;BMP280;35789;48.414;12.768;2023-09-19T10:30:01;96920.0;;;
68446;BMP280;35789;48.414;12.768;2023-09-19T10:35:02;96930.0;;;
68446;BMP280;35789;48.414;12.768;2023-09-19T10:40:02;96920.0;;;
68446;BMP280;35789;48.414;12.768;2023-09-19T10:45:03;96920.0;;;
68446;BMP280;35789;48.414;12.768;2023-09-19T10:50:01;96910.0;;;
68446;BMP280;35789;48.414;12.768;2023-09-19T10:55:01;96910.0;;;
68446;BMP280;35789;48.414;12.768;2023-09-19T11:00:02;96910.0;;;
68446;BMP280;35789;48.414;12.768;2023-09-19T11:05:12;96910.0;;;
68446;BMP280;35789;48.414;12.768;2023-09-19T11:10:00;96900.0;;;
68446;BMP280;35789;48.414;12.768;2023-09-19T11:15:01;96900.0;;;
68446;BMP280;35789;48.414;12.768;2023-09-19T11:20:23;96910.0;;;
68446;BMP280;35789;48.414;12.768;2023-09-19T11:30:25;96930.0;;;
68446;BMP280;35789;48.414;12.768;2023-09-19T11:35:07;96930.0;;;
68446;BMP280;35789;48.414;12.768;2023-09-19T11:40:09;96950.0;;;
68446;BMP280;35789;48.414;12.768;2023-09-19T11:45:00;96960.0;;;
68446;BMP280;35789;48.414;12.768;2023-09-19T11:50:01;96960.0;;;
68446;BMP280;35789;48.414;12.768;2023-09-19T11:55:01;96960.0;;;
68446;BMP280;35789;48.414;12.768;2023-09-19T12:00:01;96960.0;;;
68446;BMP280;35789;48.414;12.768;2023-09-19T12:05:00;96970.0;;;
68446;BMP280;35789;48.414;12.768;2023-09-19T12:10:04;96960.0;;;
68446;BMP280;35789;48.414;12.768;2023-09-19T12:15:00;96960.0;;;
68446;BMP280;35789;48.414;12.768;2023-09-19T12:20:00;96960.0;;;
68446;BMP280;35789;48.414;12.768;2023-09-19T12:25:06;96950.0;;;
68446;BMP280;35789;48.414;12.768;2023-09-19T12:30:01;96950.0;;;
68446;BMP280;35789;48.414;12.768;2023-09-19T12:35:00;96950.0;;;
68446;BMP280;35789;48.414;12.768;2023-09-19T12:40:05;96950.0;;;
68446;BMP280;35789;48.414;12.768;2023-09-19T12:45:01;96940.0;;;
68446;BMP280;35789;48.414;12.768;2023-09-19T12:50:09;96940.0;;;
68446;BMP280;35789;48.414;12.768;2023-09-19T12:55:00;96940.0;;;
68446;BMP280;35789;48.414;12.768;2023-09-19T13:00:01;96950.0;;;
68446;BMP280;35789;48.414;12.768;2023-09-19T13:05:00;96940.0;;;
68446;BMP280;35789;48.414;12.768;2023-09-19T13:10:05;96940.0;;;
68446;BMP280;35789;48.414;12.768;2023-09-19T13:15:08;96930.0;;;
68446;BMP280;35789;48.414;12.768;2023-09-19T13:20:00;96930.0;;;
68446;BMP280;35789;48.414;12.768;2023-09-19T13:25:00;96920.0;;;
68446;BMP280;35789;48.414;12.768;2023-09-19T13:30:00;96910.0;;;
68446;BMP280;35789;48.414;12.768;2023-09-19T13:35:00;96910.0;;;
68446;BMP280;35789;48.414;12.768;2023-09-19T13:40:00;96910.0;;;
68446;BMP280;35789;48.414;12.768;2023-09-19T13:45:00;96900.0;;;
68446;BMP280;35789;48.414;12.768;2023-09-19T13:50:02;96900.0;;;
68446;BMP280;35789;48.414;12.768;2023-09-19T13:55:00;96900.0;;;
68446;BMP280;35789;48.414;12.768;2023-09-19T14:00:00;96900.0;;;
68446;BMP280;35789;48.414;12.768;2023-09-19T14:05:00;96900.0;;;
68446;BMP280;35789;48.414;12.768;2023-09-19T14:10:00;96900.0;;;
68446;BMP280;35789;48.414;12.768;2023-09-19T14:15:00;96910.0;;;
68446;BMP280;35789;48.414;12.768;2023-09-19T14:20:00;96900.0;;;
68446;BMP280;35789;48.414;12.768;2023-09-19T14:25:00;96900.0;;;
68446;BMP280;35789;48.414;12.768;2023-09-19T14:30:00;96900.0;;;
68446;BMP280;35789;48.414;12.768;2023-09-19T14:35:00;96900.0;;;
68446;BMP280;35789;48.414;12.768;2023-09-19T14:40:00;96900.0;;;
68446;BMP280;35789;48.414;12.768;2023-09-19T14:45:00;96900.0;;;
68446;BMP280;35789;48.414;12.768;2023-09-19T14:50:01;96890.0;;;
68446;BMP280;35789;48.414;12.768;2023-09-19T14:55:01;96880.0;;;
68446;BMP280;35789;48.414;12.768;2023-09-19T15:00:00;96870.0;;;
68446;BMP280;35789;48.414;12.768;2023-09-19T15:05:00;96870.0;;;
68446;BMP280;35789;48.414;12.768;2023-09-19T15:10:00;96870.0;;;
68446;BMP280;35789;48.414;12.768;2023-09-19T15:15:02;96870.0;;;
68446;BMP280;35789;48.414;12.768;2023-09-19T15:20:00;96870.0;;;
68446;BMP280;35789;48.414;12.768;2023-09-19T15:25:00;96870.0;;;
68446;BMP280;35789;48.414;12.768;2023-09-19T15:30:00;96870.0;;;
68446;BMP280;35789;48.414;12.768;2023-09-19T15:35:00;96860.0;;;
68446;BMP280;35789;48.414;12.768;2023-09-19T15:40:00;96860.0;;;
68446;BMP280;35789;48.414;12.768;2023-09-19T15:45:00;96870.0;;;
68446;BMP280;35789;48.414;12.768;2023-09-19T15:50:00;96860.0;;;
68446;BMP280;35789;48.414;12.768;2023-09-19T15:55:03;96860.0;;;
68446;BMP280;35789;48.414;12.768;2023-09-19T16:00:00;96860.0;;;
68446;BMP280;35789;48.414;12.768;2023-09-19T16:05:00;96860.0;;;
68446;BMP280;35789;48.414;12.768;2023-09-19T16:10:02;96860.0;;;
68446;BMP280;35789;48.414;12.768;2023-09-19T16:15:00;96860.0;;;
68446;BMP280;35789;48.414;12.768;2023-09-19T16:20:00;96870.0;;;
68446;BMP280;35789;48.414;12.768;2023-09-19T16:25:00;96870.0;;;
68446;BMP280;35789;48.414;12.768;2023-09-19T16:30:00;96870.0;;;
68446;BMP280;35789;48.414;12.768;2023-09-19T16:35:00;96880.0;;;
68446;BMP280;35789;48.414;12.768;2023-09-19T16:40:00;96880.0;;;
68446;BMP280;35789;48.414;12.768;2023-09-19T16:45:00;96870.0;;;
68446;BMP280;35789;48.414;12.768;2023-09-19T16:50:00;96870.0;;;
68446;BMP280;35789;48.414;12.768;2023-09-19T16:55:00;96870.0;;;
68446;BMP280;35789;48.414;12.768;2023-09-19T17:00:00;96870.0;;;
68446;BMP280;35789;48.414;12.768;2023-09-19T17:05:00;96880.0;;;
68446;BMP280;35789;48.414;12.768;2023-09-19T17:10:00;96880.0;;;
68446;BMP280;35789;48.414;12.768;2023-09-19T17:15:00;96880.0;;;
68446;BMP280;35789;48.414;12.768;2023-09-19T17:20:00;96890.0;;;
68446;BMP280;35789;48.414;12.768;2023-09-19T17:25:00;96890.0;;;
68446;BMP280;35789;48.414;12.768;2023-09-19T17:30:00;96890.0;;;
68446;BMP280;35789;48.414;12.768;2023-09-19T17:35:00;96890.0;;;
68446;BMP280;35789;48.414;12.768;2023-09-19T17:40:00;96890.0;;;
68446;BMP280;35789;48.414;12.768;2023-09-19T17:45:00;96890.0;;;
68446;BMP280;35789;48.414;12.768;2023-09-19T17:50:00;96900.0;;;
68446;BMP280;35789;48.414;12.768;2023-09-19T17:55:00;96890.0;;;
68446;BMP280;35789;48.414;12.768;2023-09-19T18:00:00;96900.0;;;
68446;BMP280;35789;48.414;12.768;2023-09-19T18:05:00;96900.0;;;
68446;BMP280;35789;48.414;12.768;2023-09-19T18:10:00;96910.0;;;
68446;BMP280;35789;48.414;12.768;2023-09-19T18:15:00;96910.0;;;
68446;BMP280;35789;48.414;12.768;2023-09-19T18:20:00;96910.0;;;
68446;BMP280;35789;48.414;12.768;2023-09-19T18:25:00;96930.0;;;
68446;BMP280;35789;48.414;12.768;2023-09-19T18:30:00;96930.0;;;
68446;BMP280;35789;48.414;12.768;2023-09-19T18:35:00;96930.0;;;
68446;BMP280;35789;48.414;12.768;2023-09-19T18:40:00;96930.0;;;
68446;BMP280;35789;48.414;12.768;2023-09-19T18:45:00;96930.0;;;
68446;BMP280;35789;48.414;12.768;2023-09-19T18:50:01;96930.0;;;
68446;BMP280;35789;48.414;12.768;2023-09-19T18:55:00;96940.0;;;
68446;BMP280;35789;48.414;12.768;2023-09-19T19:00:00;96940.0;;;
68446;BMP280;35789;48.414;12.768;2023-09-19T19:05:00;96940.0;;;
68446;BMP280;35789;48.414;12.768;2023-09-19T19:10:00;96940.0;;;
68446;BMP280;35789;48.414;12.768;2023-09-19T19:15:01;96940.0;;;
68446;BMP280;35789;48.414;12.768;2023-09-19T19:20:00;96950.0;;;
68446;BMP280;35789;48.414;12.768;2023-09-19T19:25:00;96950.0;;;
68446;BMP280;35789;48.414;12.768;2023-09-19T19:30:00;96960.0;;;
68446;BMP280;35789;48.414;12.768;2023-09-19T19:35:00;96960.0;;;
68446;BMP280;35789;48.414;12.768;2023-09-19T19:40:00;96970.0;;;
68446;BMP280;35789;48.414;12.768;2023-09-19T19:45:00;96980.0;;;
68446;BMP280;35789;48.414;12.768;2023-09-19T19:50:00;96980.0;;;
68446;BMP280;35789;48.414;12.768;2023-09-19T19:55:00;96990.0;;;
68446;BMP280;35789;48.414;12.768;2023-09-19T20:00:00;96990.0;;;
68446;BMP280;35789;48.414;12.768;2023-09-19T20:05:00;96990.0;;;
68446;BMP280;35789;48.414;12.768;2023-09-19T20:10:00;96990.0;;;
68446;BMP280;35789;48.414;12.768;2023-09-19T20:15:00;96990.0;;;
68446;BMP280;35789;48.414;12.768;2023-09-19T20:20:00;96990.0;;;
68446;BMP280;35789;48.414;12.768;2023-09-19T20:25:00;96980.0;;;
68446;BMP280;35789;48.414;12.768;2023-09-19T20:30:00;96980.0;;;
68446;BMP280;35789;48.414;12.768;2023-09-19T20:35:00;96980.0;;;
68446;BMP280;35789;48.414;12.768;2023-09-19T20:40:00;96980.0;;;
68446;BMP280;35789;48.414;12.768;2023-09-19T20:45:00;96980.0;;;
68446;BMP280;35789;48.414;12.768;2023-09-19T20:50:00;96990.0;;;
68446;BMP280;35789;48.414;12.768;2023-09-19T20:55:00;96990.0;;;
68446;BMP280;35789;48.414;12.768;2023-09-19T21:00:00;96990.0;;;
68446;BMP280;35789;48.414;12.768;2023-09-19T21:05:00;96990.0;;;
68446;BMP280;35789;48.414;12.768;2023-09-19T21:10:01;97000.0;;;
68446;BMP280;35789;48.414;12.768;2023-09-19T21:15:00;97000.0;;;
68446;BMP280;35789;48.414;12.768;2023-09-19T21:20:00;97000.0;;;
68446;BMP280;35789;48.414;12.768;2023-09-19T21:25:00;97000.0;;;
68446;BMP280;35789;48.414;12.768;2023-09-19T21:30:00;97000.0;;;
68446;BMP280;35789;48.414;12.768;2023-09-19T21:35:00;96990.0;;;
68446;BMP280;35789;48.414;12.768;2023-09-19T21:40:00;96990.0;;;
68446;BMP280;35789;48.414;12.768;2023-09-19T21:45:00;96990.0;;;
68446;BMP280;35789;48.414;12.768;2023-09-19T21:50:00;96990.0;;;
68446;BMP280;35789;48.414;12.768;2023-09-19T21:55:00;96990.0;;;
68446;BMP280;35789;48.414;12.768;2023-09-19T22:00:00;97000.0;;;
68446;BMP280;35789;48.414;12.768;2023-09-19T22:05:00;97000.0;;;
68446;BMP280;35789;48.414;12.768;2023-09-19T22:10:00;97000.0;;;
68446;BMP280;35789;48.414;12.768;2023-09-19T22:15:00;97000.0;;;
68446;BMP280;35789;48.414;12.768;2023-09-19T22:20:00;97000.0;;;
68446;BMP280;35789;48.414;12.768;2023-09-19T22:25:00;97000.0;;;
68446;BMP280;35789;48.414;12.768;2023-09-19T22:30:00;97000.0;;;
68446;BMP280;35789;48.414;12.768;2023-09-19T22:35:00;96990.0;;;
68446;BMP280;35789;48.414;12.768;2023-09-19T22:40:00;97000.0;;;
68446;BMP280;35789;48.414;12.768;2023-09-19T22:45:00;97000.0;;;
68446;BMP280;35789;48.414;12.768;2023-09-19T22:50:00;97000.0;;;
68446;BMP280;35789;48.414;12.768;2023-09-19T22:55:00;97010.0;;;
68446;BMP280;35789;48.414;12.768;2023-09-19T23:00:00;97010.0;;;
68446;BMP280;35789;48.414;12.768;2023-09-19T23:05:00;97010.0;;;
68446;BMP280;35789;48.414;12.768;2023-09-19T23:10:00;97020.0;;;
68446;BMP280;35789;48.414;12.768;2023-09-19T23:15:00;97010.0;;;
68446;BMP280;35789;48.414;12.768;2023-09-19T23:20:00;97010.0;;;
68446;BMP280;35789;48.414;12.768;2023-09-19T23:25:00;97000.0;;;
68446;BMP280;35789;48.414;12.768;2023-09-19T23:30:00;97000.0;;;
68446;BMP280;35789;48.414;12.768;2023-09-19T23:35:00;97010.0;;;
68446;BMP280;35789;48.414;12.768;2023-09-19T23:40:00;97010.0;;;
68446;BMP280;35789;48.414;12.768;2023-09-19T23:45:00;97010.0;;;
68446;BMP280;35789;48.414;12.768;2023-09-19T23:50:01;97010.0;;;
68446;BMP280;35789;48.414;12.768;2023-09-19T23:55:00;97010.0;;;
